createdAt,value
2019-03-15T00:02:01.583Z,2.30
2019-03-15T00:04:29.084Z,2.70
2019-03-15T00:06:56.434Z,3.43
2019-03-15T00:09:23.773Z,2.20
2019-03-15T00:11:51.341Z,2.30
2019-03-15T00:14:18.834Z,2.30
2019-03-15T00:16:46.241Z,3.20
2019-03-15T00:19:13.813Z,2.83
2019-03-15T00:21:41.209Z,2.20
2019-03-15T00:24:08.521Z,2.30
2019-03-15T00:26:38.729Z,2.33
2019-03-15T00:29:06.260Z,2.83
2019-03-15T00:31:33.743Z,2.37
2019-03-15T00:34:00.992Z,2.60
2019-03-15T00:36:28.400Z,2.80
2019-03-15T00:38:55.808Z,2.30
2019-03-15T00:41:23.194Z,2.63
2019-03-15T00:43:50.660Z,3.17
2019-03-15T00:46:18.094Z,2.73
2019-03-15T00:48:45.571Z,2.30
2019-03-15T00:51:12.979Z,3.03
2019-03-15T00:53:40.391Z,3.50
2019-03-15T00:56:07.688Z,2.40
2019-03-15T00:58:35.133Z,3.40
2019-03-15T01:01:02.477Z,2.73
2019-03-15T01:03:29.835Z,2.40
2019-03-15T01:05:57.244Z,4.20
2019-03-15T01:08:24.643Z,2.50
2019-03-15T01:10:52.212Z,3.43
2019-03-15T01:13:19.619Z,2.23
2019-03-15T01:15:47.085Z,2.30
2019-03-15T01:18:14.421Z,2.40
2019-03-15T01:20:41.913Z,2.30
2019-03-15T01:23:09.405Z,2.83
2019-03-15T01:25:36.809Z,2.70
2019-03-15T01:28:04.187Z,2.67
2019-03-15T01:30:31.580Z,2.60
2019-03-15T01:32:58.777Z,2.20
2019-03-15T01:35:26.287Z,2.47
2019-03-15T01:37:53.671Z,2.40
2019-03-15T01:40:21.147Z,2.20
2019-03-15T01:42:48.577Z,2.17
2019-03-15T01:45:16.041Z,2.20
2019-03-15T01:47:43.379Z,2.20
2019-03-15T01:50:10.729Z,2.23
2019-03-15T01:52:38.012Z,2.30
2019-03-15T01:55:05.975Z,2.20
2019-03-15T01:57:33.490Z,2.03
2019-03-15T02:00:00.863Z,2.17
2019-03-15T02:02:28.274Z,2.20
2019-03-15T02:04:55.690Z,2.27
2019-03-15T02:07:23.062Z,2.30
2019-03-15T02:09:50.386Z,2.53
2019-03-15T02:12:18.102Z,2.43
2019-03-15T02:14:45.469Z,2.20
2019-03-15T02:17:12.832Z,2.20
2019-03-15T02:19:40.253Z,2.37
2019-03-15T02:22:08.423Z,2.37
2019-03-15T02:24:35.965Z,2.93
2019-03-15T02:27:03.399Z,2.40
2019-03-15T02:29:30.752Z,3.50
2019-03-15T02:31:58.135Z,2.87
2019-03-15T02:34:25.481Z,2.40
2019-03-15T02:36:52.958Z,3.43
2019-03-15T02:39:20.292Z,2.73
2019-03-15T02:41:47.694Z,2.90
2019-03-15T02:44:15.060Z,4.33
2019-03-15T02:46:42.482Z,2.83
2019-03-15T02:49:10.201Z,2.80
2019-03-15T02:51:37.553Z,2.43
2019-03-15T02:54:04.861Z,2.73
2019-03-15T02:56:32.294Z,2.40
2019-03-15T02:58:59.705Z,2.40
2019-03-15T03:01:27.206Z,2.57
2019-03-15T03:03:54.558Z,2.63
2019-03-15T03:06:21.970Z,2.97
2019-03-15T03:08:49.352Z,3.13
2019-03-15T03:11:16.792Z,4.50
2019-03-15T03:13:44.263Z,2.83
2019-03-15T03:16:11.706Z,2.57
2019-03-15T03:18:39.001Z,3.17
2019-03-15T03:21:06.461Z,4.80
2019-03-15T03:23:33.977Z,3.37
2019-03-15T03:26:01.293Z,2.90
2019-03-15T03:28:28.738Z,4.07
2019-03-15T03:30:56.176Z,3.00
2019-03-15T03:33:23.577Z,3.70
2019-03-15T03:35:51.095Z,3.17
2019-03-15T03:38:18.475Z,2.67
2019-03-15T03:40:45.819Z,3.60
2019-03-15T03:43:13.238Z,3.20
2019-03-15T03:45:40.671Z,3.00
2019-03-15T03:48:08.502Z,5.10
2019-03-15T03:50:36.087Z,3.37
2019-03-15T03:53:03.506Z,2.77
2019-03-15T03:55:30.943Z,3.87
2019-03-15T03:57:58.405Z,3.67
2019-03-15T04:00:25.786Z,4.43
2019-03-15T04:02:53.496Z,2.73
2019-03-15T04:05:21.113Z,5.43
2019-03-15T04:07:48.517Z,3.90
2019-03-15T04:10:15.862Z,2.70
2019-03-15T04:12:43.307Z,3.60
2019-03-15T04:15:10.863Z,2.97
2019-03-15T04:17:38.395Z,3.23
2019-03-15T04:20:06.199Z,3.13
2019-03-15T04:22:33.598Z,3.73
2019-03-15T04:25:00.875Z,4.07
2019-03-15T04:27:28.204Z,3.37
2019-03-15T04:29:55.637Z,2.93
2019-03-15T04:32:23.228Z,2.57
2019-03-15T04:34:53.228Z,4.40
2019-03-15T04:37:22.877Z,2.53
2019-03-15T04:39:49.793Z,3.63
2019-03-15T04:42:17.247Z,3.23
2019-03-15T04:44:44.577Z,2.97
2019-03-15T04:47:11.855Z,3.17
2019-03-15T04:49:39.137Z,2.90
2019-03-15T04:52:06.456Z,2.23
2019-03-15T04:54:33.777Z,3.07
2019-03-15T04:57:01.169Z,4.00
2019-03-15T04:59:28.491Z,3.63
2019-03-15T05:01:55.834Z,3.30
2019-03-15T05:04:23.079Z,2.43
2019-03-15T05:06:50.600Z,3.87
2019-03-15T05:09:18.017Z,3.67
2019-03-15T05:11:45.711Z,3.67
2019-03-15T05:14:13.139Z,4.17
2019-03-15T05:16:40.489Z,4.30
2019-03-15T05:19:07.772Z,3.73
2019-03-15T05:21:35.111Z,3.00
2019-03-15T05:24:02.380Z,3.03
2019-03-15T05:26:29.823Z,2.83
2019-03-15T05:28:57.069Z,4.43
2019-03-15T05:31:24.401Z,3.33
2019-03-15T05:33:51.846Z,3.37
2019-03-15T05:36:19.370Z,3.73
2019-03-15T05:38:46.703Z,4.10
2019-03-15T05:41:13.990Z,4.07
2019-03-15T05:43:42.486Z,3.10
2019-03-15T05:46:09.758Z,3.60
2019-03-15T05:48:37.075Z,4.53
2019-03-15T05:51:06.325Z,2.30
2019-03-15T05:53:37.644Z,2.93
2019-03-15T05:56:06.126Z,2.77
2019-03-15T05:58:33.748Z,3.20
2019-03-15T06:01:21.116Z,3.87
2019-03-15T06:03:49.515Z,3.37
2019-03-15T06:06:17.006Z,3.73
2019-03-15T06:08:44.460Z,3.90
2019-03-15T06:11:11.831Z,3.73
2019-03-15T06:13:39.163Z,2.53
2019-03-15T06:16:06.626Z,3.20
2019-03-15T06:18:34.086Z,2.77
2019-03-15T06:21:01.542Z,2.73
2019-03-15T06:23:28.935Z,3.17
2019-03-15T06:25:56.254Z,3.97
2019-03-15T06:28:23.959Z,4.23
2019-03-15T06:30:51.443Z,2.27
2019-03-15T06:33:21.075Z,3.73
2019-03-15T06:35:48.538Z,3.23
2019-03-15T06:38:15.931Z,3.30
2019-03-15T06:40:43.346Z,3.67
2019-03-15T06:43:13.314Z,3.13
2019-03-15T06:45:41.855Z,2.87
2019-03-15T06:48:09.201Z,3.77
2019-03-15T06:50:36.678Z,3.70
2019-03-15T06:53:03.937Z,4.13
2019-03-15T06:55:33.279Z,3.77
2019-03-15T06:58:09.098Z,4.73
2019-03-15T07:00:36.522Z,4.00
2019-03-15T07:03:04.014Z,3.93
2019-03-15T07:05:32.099Z,3.73
2019-03-15T07:07:59.393Z,4.70
2019-03-15T07:10:26.765Z,3.87
2019-03-15T07:12:54.237Z,3.33
2019-03-15T07:15:21.597Z,3.87
2019-03-15T07:17:48.953Z,3.63
2019-03-15T07:20:16.363Z,3.73
2019-03-15T07:22:43.747Z,2.53
2019-03-15T07:25:11.597Z,2.20
2019-03-15T07:27:42.192Z,2.80
2019-03-15T07:30:09.247Z,2.77
2019-03-15T07:32:36.607Z,3.57
2019-03-15T07:35:03.986Z,2.10
2019-03-15T07:37:31.380Z,2.97
2019-03-15T07:39:58.811Z,3.23
2019-03-15T07:42:26.195Z,2.13
2019-03-15T07:44:53.631Z,3.20
2019-03-15T07:47:21.072Z,4.23
2019-03-15T07:49:48.514Z,2.30
2019-03-15T07:53:09.454Z,3.13
2019-03-15T07:55:36.839Z,3.03
2019-03-15T07:58:04.251Z,2.40
2019-03-15T08:00:31.703Z,2.90
2019-03-15T08:02:59.124Z,3.23
2019-03-15T08:05:26.641Z,3.00
2019-03-15T08:08:16.666Z,3.47
2019-03-15T08:10:46.800Z,1.93
2019-03-15T08:13:14.128Z,2.73
2019-03-15T08:15:41.610Z,2.30
2019-03-15T08:18:08.999Z,2.70
2019-03-15T08:20:36.425Z,2.23
2019-03-15T08:23:03.885Z,2.20
2019-03-15T08:25:31.236Z,2.20
2019-03-15T08:27:58.590Z,2.30
2019-03-15T08:30:25.990Z,2.30
2019-03-15T08:32:53.360Z,2.40
2019-03-15T08:35:24.193Z,2.20
2019-03-15T08:37:49.993Z,2.00
2019-03-15T08:40:17.529Z,2.00
2019-03-15T08:42:44.759Z,2.13
2019-03-15T08:45:12.740Z,2.17
2019-03-15T08:47:40.177Z,2.20
2019-03-15T08:50:15.336Z,2.30
2019-03-15T08:52:43.263Z,2.50
2019-03-15T08:55:10.662Z,2.30
2019-03-15T08:57:37.976Z,2.40
2019-03-15T09:00:06.790Z,2.00
2019-03-15T09:02:34.094Z,2.10
2019-03-15T09:05:01.448Z,2.10
2019-03-15T09:07:28.867Z,2.20
2019-03-15T09:09:56.537Z,2.40
2019-03-15T09:12:23.869Z,2.10
2019-03-15T09:14:51.315Z,2.10
2019-03-15T09:17:20.017Z,2.00
2019-03-15T09:19:47.710Z,2.47
2019-03-15T09:22:37.823Z,2.17
2019-03-15T09:25:18.053Z,2.10
2019-03-15T09:27:34.260Z,1.80
2019-03-15T09:30:01.713Z,1.93
2019-03-15T09:32:29.073Z,2.13
2019-03-15T09:34:56.559Z,2.00
2019-03-15T09:37:24.039Z,2.30
2019-03-15T09:39:52.218Z,2.50
2019-03-15T09:42:19.652Z,2.27
2019-03-15T09:44:47.038Z,2.20
2019-03-15T09:47:14.363Z,1.90
2019-03-15T09:49:41.814Z,1.80
2019-03-15T09:52:09.217Z,2.00
2019-03-15T09:54:36.673Z,2.00
2019-03-15T09:57:03.975Z,2.10
2019-03-15T09:59:31.320Z,2.00
2019-03-15T10:02:00.217Z,2.00
2019-03-15T10:04:27.598Z,1.80
2019-03-15T10:06:54.889Z,1.80
2019-03-15T10:09:22.265Z,1.50
2019-03-15T10:11:50.166Z,1.73
2019-03-15T10:14:17.549Z,2.27
2019-03-15T10:16:45.359Z,2.23
2019-03-15T10:19:12.954Z,1.80
2019-03-15T10:21:40.461Z,1.90
2019-03-15T10:24:08.378Z,1.90
2019-03-15T10:26:36.261Z,1.87
2019-03-15T10:29:14.639Z,1.73
2019-03-15T10:31:51.321Z,1.73
2019-03-15T10:34:18.661Z,1.90
2019-03-15T10:36:45.990Z,1.90
2019-03-15T10:39:13.410Z,2.00
2019-03-15T10:41:40.821Z,1.80
2019-03-15T10:44:08.280Z,2.17
2019-03-15T10:46:35.605Z,2.00
2019-03-15T10:49:03.101Z,2.00
2019-03-15T10:51:30.475Z,1.90
2019-03-15T10:53:57.909Z,3.13
2019-03-15T10:56:25.436Z,1.90
2019-03-15T10:58:52.754Z,1.90
2019-03-15T11:01:20.082Z,2.00
2019-03-15T11:03:47.421Z,2.03
2019-03-15T11:06:17.567Z,2.33
2019-03-15T11:08:46.177Z,1.90
2019-03-15T11:11:13.500Z,2.03
2019-03-15T11:13:40.866Z,1.90
2019-03-15T11:16:08.188Z,1.90
2019-03-15T11:18:35.716Z,1.80
2019-03-15T11:21:03.134Z,1.80
2019-03-15T11:23:30.475Z,1.90
2019-03-15T11:25:57.851Z,1.90
2019-03-15T11:28:25.299Z,2.03
2019-03-15T11:30:52.629Z,2.10
2019-03-15T11:33:20.017Z,2.00
2019-03-15T11:35:47.290Z,2.03
2019-03-15T11:38:16.232Z,2.03
2019-03-15T11:40:43.506Z,2.10
2019-03-15T11:43:12.723Z,2.20
2019-03-15T11:45:41.934Z,4.37
2019-03-15T11:48:09.417Z,2.00
2019-03-15T11:50:36.855Z,1.73
2019-03-15T11:53:04.154Z,2.00
2019-03-15T11:55:31.567Z,2.03
2019-03-15T11:57:58.926Z,1.90
2019-03-15T12:00:26.266Z,2.00
2019-03-15T12:02:53.768Z,2.00
2019-03-15T12:05:22.021Z,2.33
2019-03-15T12:07:49.309Z,2.10
2019-03-15T12:10:16.644Z,2.13
2019-03-15T12:12:44.073Z,2.10
2019-03-15T12:15:11.764Z,2.33
2019-03-15T12:17:39.263Z,1.90
2019-03-15T12:20:12.887Z,1.97
2019-03-15T12:22:40.293Z,2.10
2019-03-15T12:25:07.827Z,1.97
2019-03-15T12:27:35.203Z,1.93
2019-03-15T12:30:02.771Z,2.10
2019-03-15T12:32:30.062Z,2.10
2019-03-15T12:35:02.751Z,2.10
2019-03-15T12:37:30.230Z,1.83
2019-03-15T12:39:57.568Z,2.00
2019-03-15T12:42:24.933Z,2.00
2019-03-15T12:44:52.281Z,2.00
2019-03-15T12:47:19.719Z,2.00
2019-03-15T12:49:47.070Z,2.00
2019-03-15T12:52:14.376Z,2.00
2019-03-15T12:54:41.834Z,2.20
2019-03-15T12:57:09.252Z,2.10
2019-03-15T12:59:36.662Z,1.97
2019-03-15T13:02:04.147Z,1.83
2019-03-15T13:04:31.682Z,2.00
2019-03-15T13:06:59.122Z,2.50
2019-03-15T13:09:26.813Z,2.10
2019-03-15T13:11:54.213Z,2.30
2019-03-15T13:14:21.617Z,2.10
2019-03-15T13:16:48.969Z,1.90
2019-03-15T13:19:16.300Z,2.00
2019-03-15T13:21:43.666Z,1.80
2019-03-15T13:24:11.095Z,2.00
2019-03-15T13:26:38.493Z,2.20
2019-03-15T13:29:06.821Z,1.97
2019-03-15T13:31:34.106Z,2.00
2019-03-15T13:34:01.625Z,2.20
2019-03-15T13:36:28.918Z,2.40
2019-03-15T13:38:56.290Z,1.90
2019-03-15T13:41:23.659Z,1.90
2019-03-15T13:43:50.994Z,1.90
2019-03-15T13:46:18.447Z,1.90
2019-03-15T13:48:45.775Z,2.03
2019-03-15T13:51:13.149Z,2.00
2019-03-15T13:53:40.573Z,2.00
2019-03-15T13:56:07.887Z,1.83
2019-03-15T13:58:35.363Z,2.00
2019-03-15T14:01:02.787Z,1.70
2019-03-15T14:03:30.154Z,2.10
2019-03-15T14:05:57.460Z,2.10
2019-03-15T14:08:24.895Z,1.90
2019-03-15T14:10:52.409Z,2.10
2019-03-15T14:13:19.808Z,1.70
2019-03-15T14:15:47.175Z,2.03
2019-03-15T14:18:14.643Z,2.13
2019-03-15T14:20:42.546Z,2.10
2019-03-15T14:23:10.158Z,2.23
2019-03-15T14:25:37.572Z,2.00
2019-03-15T14:28:04.878Z,2.10
2019-03-15T14:30:32.334Z,2.23
2019-03-15T14:32:59.707Z,2.13
2019-03-15T14:35:27.204Z,2.13
2019-03-15T14:37:54.807Z,2.30
2019-03-15T14:40:22.523Z,2.10
2019-03-15T14:42:50.267Z,2.20
2019-03-15T14:45:17.714Z,2.10
2019-03-15T14:47:45.078Z,2.23
2019-03-15T14:50:12.718Z,2.07
2019-03-15T14:52:40.189Z,2.30
2019-03-15T14:55:07.580Z,2.10
2019-03-15T14:57:34.884Z,1.80
2019-03-15T15:00:02.336Z,2.20
2019-03-15T15:02:29.784Z,1.73
2019-03-15T15:04:57.270Z,2.10
2019-03-15T15:07:24.611Z,1.80
2019-03-15T15:09:52.104Z,2.20
2019-03-15T15:12:19.515Z,1.70
2019-03-15T15:14:47.552Z,2.10
2019-03-15T15:17:14.876Z,2.10
2019-03-15T15:19:42.253Z,2.07
2019-03-15T15:22:09.674Z,1.73
2019-03-15T15:24:37.088Z,2.00
2019-03-15T15:27:04.480Z,2.30
2019-03-15T15:29:31.968Z,2.10
2019-03-15T15:31:59.506Z,2.10
2019-03-15T15:34:26.825Z,2.10
2019-03-15T15:36:54.255Z,2.10
2019-03-15T15:39:21.579Z,2.13
2019-03-15T15:41:49.021Z,1.90
2019-03-15T15:44:16.378Z,2.10
2019-03-15T15:46:43.737Z,2.13
2019-03-15T15:49:11.071Z,2.20
2019-03-15T15:51:38.485Z,2.00
2019-03-15T15:54:05.929Z,1.83
2019-03-15T15:56:33.281Z,2.00
2019-03-15T15:59:02.974Z,2.00
2019-03-15T16:01:29.856Z,2.10
2019-03-15T16:03:58.300Z,2.10
2019-03-15T16:06:25.786Z,2.07
2019-03-15T16:08:53.233Z,2.10
2019-03-15T16:11:20.732Z,2.00
2019-03-15T16:13:48.191Z,2.10
2019-03-15T16:16:15.520Z,1.90
2019-03-15T16:18:42.863Z,1.90
2019-03-15T16:21:10.409Z,2.00
2019-03-15T16:23:37.879Z,2.07
2019-03-15T16:26:05.355Z,2.10
2019-03-15T16:28:36.012Z,2.00
2019-03-15T16:31:02.041Z,1.87
2019-03-15T16:33:29.486Z,2.10
2019-03-15T16:35:56.815Z,2.20
2019-03-15T16:38:24.305Z,2.20
2019-03-15T16:40:51.741Z,2.10
2019-03-15T16:43:25.988Z,2.20
2019-03-15T16:45:53.292Z,2.10
2019-03-15T16:48:20.722Z,2.27
2019-03-15T16:50:48.073Z,2.50
2019-03-15T16:53:16.998Z,2.40
2019-03-15T16:55:50.301Z,2.53
2019-03-15T16:58:17.889Z,2.20
2019-03-15T17:00:45.824Z,2.60
2019-03-15T17:03:33.196Z,2.40
2019-03-15T17:06:00.583Z,2.50
2019-03-15T17:08:28.422Z,2.30
2019-03-15T17:10:56.190Z,2.30
2019-03-15T17:13:31.149Z,2.77
2019-03-15T17:16:40.778Z,2.97
2019-03-15T17:20:12.063Z,2.53
2019-03-15T17:32:00.601Z,2.43
2019-03-15T17:41:30.362Z,2.30
2019-03-15T17:47:37.675Z,2.60
2019-03-15T17:50:23.229Z,2.50
2019-03-15T17:53:15.688Z,2.70
2019-03-15T17:56:10.925Z,2.90
2019-03-15T17:58:48.391Z,2.53
2019-03-15T18:01:28.423Z,2.40
2019-03-15T18:07:50.337Z,2.50
2019-03-15T18:13:03.654Z,2.80
2019-03-15T18:15:32.178Z,3.00
2019-03-15T18:18:00.251Z,2.80
2019-03-15T18:20:30.621Z,2.63
2019-03-15T18:23:18.833Z,2.50
2019-03-15T18:25:46.244Z,2.60
2019-03-15T18:28:13.747Z,2.60
2019-03-15T18:30:41.271Z,2.57
2019-03-15T18:33:11.714Z,2.40
2019-03-15T18:35:39.150Z,2.90
2019-03-15T18:38:09.961Z,2.53
2019-03-15T18:41:03.065Z,2.80
2019-03-15T18:43:32.855Z,2.60
2019-03-15T18:46:00.836Z,2.70
2019-03-15T18:51:22.729Z,2.50
2019-03-15T18:53:55.975Z,2.80
2019-03-15T18:56:43.315Z,2.50
2019-03-15T18:59:11.030Z,2.50
2019-03-15T19:01:42.164Z,2.80
2019-03-15T19:04:18.842Z,2.60
2019-03-15T19:10:27.053Z,2.40
2019-03-15T19:12:58.009Z,2.40
2019-03-15T19:15:25.488Z,2.23
2019-03-15T19:17:53.178Z,2.50
2019-03-15T19:20:23.682Z,2.47
2019-03-15T19:22:51.086Z,2.70
2019-03-15T19:25:18.542Z,2.80
2019-03-15T19:27:46.099Z,2.67
2019-03-15T19:30:16.509Z,2.70
2019-03-15T19:32:46.835Z,2.60
2019-03-15T19:35:16.921Z,2.70
2019-03-15T19:37:44.383Z,2.50
2019-03-15T19:40:15.809Z,2.57
2019-03-15T19:42:45.567Z,2.47
2019-03-15T19:45:13.085Z,2.90
2019-03-15T19:47:40.486Z,2.90
2019-03-15T19:50:10.880Z,2.50
2019-03-15T19:52:38.264Z,2.70
2019-03-15T19:55:06.251Z,2.60
2019-03-15T19:57:33.728Z,2.60
2019-03-15T20:00:07.779Z,2.80
2019-03-15T20:02:30.541Z,2.70
2019-03-15T20:04:58.023Z,2.63
2019-03-15T20:07:25.485Z,2.80
2019-03-15T20:09:52.934Z,2.50
2019-03-15T20:12:27.025Z,2.80
2019-03-15T20:14:54.445Z,2.83
2019-03-15T20:17:21.818Z,2.50
2019-03-15T20:19:49.307Z,2.60
2019-03-15T20:22:16.797Z,2.70
2019-03-15T20:24:51.378Z,2.57
2019-03-15T20:27:18.998Z,2.50
2019-03-15T20:29:46.560Z,2.50
2019-03-15T20:32:14.034Z,2.60
2019-03-15T20:34:41.433Z,2.80
2019-03-15T20:37:08.887Z,2.50
2019-03-15T20:39:36.302Z,2.70
2019-03-15T20:42:03.737Z,2.60
2019-03-15T20:44:31.199Z,2.50
2019-03-15T20:46:58.684Z,2.50
2019-03-15T20:49:26.242Z,2.60
2019-03-15T20:51:54.375Z,2.50
2019-03-15T20:54:21.950Z,2.63
2019-03-15T20:56:49.354Z,2.00
2019-03-15T20:59:16.770Z,1.90
2019-03-15T21:01:44.295Z,2.10
2019-03-15T21:04:11.893Z,2.00
2019-03-15T21:06:59.188Z,2.00
2019-03-15T21:09:33.845Z,2.10
2019-03-15T21:12:52.191Z,2.20
2019-03-15T21:15:20.531Z,2.00
2019-03-15T21:17:48.013Z,1.87
2019-03-15T21:20:15.429Z,2.00
2019-03-15T21:22:42.883Z,1.97
2019-03-15T21:25:10.515Z,2.00
2019-03-15T21:27:37.957Z,1.87
2019-03-15T21:30:07.739Z,2.07
2019-03-15T21:32:36.491Z,1.93
2019-03-15T21:35:04.360Z,1.80
2019-03-15T21:37:34.651Z,2.13
2019-03-15T21:40:53.128Z,2.10
2019-03-15T21:44:28.446Z,1.80
2019-03-15T21:47:10.455Z,1.97
2019-03-15T21:49:37.937Z,2.03
2019-03-15T21:52:05.353Z,2.00
2019-03-15T21:54:32.936Z,1.90
2019-03-15T21:57:00.340Z,2.00
2019-03-15T21:59:28.785Z,2.10
2019-03-15T22:01:57.107Z,2.10
2019-03-15T22:04:24.567Z,1.90
2019-03-15T22:06:52.098Z,2.47
2019-03-15T22:09:42.184Z,2.03
2019-03-15T22:12:09.637Z,2.10
2019-03-15T22:14:38.453Z,2.73
2019-03-15T22:17:14.962Z,2.10
2019-03-15T22:19:42.521Z,2.20
2019-03-15T22:22:10.374Z,2.20
2019-03-15T22:24:59.934Z,1.97
2019-03-15T22:27:29.672Z,2.20
2019-03-15T22:30:03.888Z,2.20
2019-03-15T22:32:31.443Z,2.00
2019-03-15T22:34:59.033Z,1.90
2019-03-15T22:37:26.648Z,2.10
2019-03-15T22:40:02.718Z,2.00
2019-03-15T22:42:30.237Z,1.97
2019-03-15T22:44:57.639Z,1.80
2019-03-15T22:47:26.600Z,1.93
2019-03-15T22:49:54.035Z,2.17
2019-03-15T22:52:24.261Z,2.30
2019-03-15T22:54:51.732Z,2.10
2019-03-15T22:57:19.065Z,2.10
2019-03-15T22:59:46.835Z,2.03
2019-03-15T23:02:14.710Z,2.00
2019-03-15T23:04:42.096Z,1.80
2019-03-15T23:07:09.528Z,2.90
2019-03-15T23:09:36.904Z,2.00
2019-03-15T23:12:04.463Z,2.00
2019-03-15T23:14:34.705Z,2.00
2019-03-15T23:17:02.134Z,1.83
2019-03-15T23:19:29.494Z,1.80
2019-03-15T23:21:56.871Z,1.90
2019-03-15T23:24:46.950Z,2.00
2019-03-15T23:27:14.454Z,1.90
2019-03-15T23:29:41.898Z,2.00
2019-03-15T23:32:09.836Z,1.87
2019-03-15T23:34:37.297Z,2.00
2019-03-15T23:37:04.657Z,2.00
2019-03-15T23:39:34.045Z,1.70
2019-03-15T23:42:01.645Z,1.70
2019-03-15T23:44:29.389Z,1.90
2019-03-15T23:46:59.397Z,1.80
2019-03-15T23:49:26.934Z,1.80
2019-03-15T23:51:54.358Z,1.80
2019-03-15T23:54:21.724Z,1.80
2019-03-15T23:56:49.168Z,1.90
2019-03-15T23:59:16.538Z,1.90
